createdAt,value
2023-04-14T00:00:36.795Z,99.90
2023-04-14T00:03:03.970Z,99.90
2023-04-14T00:05:31.567Z,99.90
2023-04-14T00:07:58.642Z,99.90
2023-04-14T00:10:25.601Z,99.90
2023-04-14T00:12:52.382Z,99.90
2023-04-14T00:15:18.993Z,99.90
2023-04-14T00:17:45.928Z,99.90
2023-04-14T00:20:12.694Z,99.90
2023-04-14T00:22:39.263Z,99.90
2023-04-14T00:25:06.495Z,99.90
2023-04-14T00:27:33.092Z,99.90
2023-04-14T00:29:59.632Z,99.90
2023-04-14T00:32:26.128Z,99.90
2023-04-14T00:34:52.696Z,99.90
2023-04-14T00:37:19.191Z,99.90
2023-04-14T00:39:45.777Z,99.90
2023-04-14T00:42:12.324Z,99.90
2023-04-14T00:44:38.932Z,99.90
2023-04-14T00:47:05.510Z,99.90
2023-04-14T00:49:32.122Z,99.90
2023-04-14T00:51:59.217Z,99.90
2023-04-14T00:54:26.412Z,99.90
2023-04-14T00:56:54.343Z,99.90
2023-04-14T00:59:21.010Z,99.90
2023-04-14T01:01:47.629Z,99.90
2023-04-14T01:04:15.803Z,99.90
2023-04-14T01:06:42.427Z,99.90
2023-04-14T01:09:09.496Z,99.90
2023-04-14T01:12:21.417Z,99.90
2023-04-14T01:15:10.762Z,99.90
2023-04-14T01:17:56.396Z,99.90
2023-04-14T01:20:28.036Z,99.90
2023-04-14T01:23:01.278Z,99.90
2023-04-14T01:25:58.331Z,99.90
2023-04-14T01:28:42.426Z,99.90
2023-04-14T01:31:28.226Z,99.90
2023-04-14T01:34:05.848Z,99.90
2023-04-14T01:36:42.780Z,99.90
2023-04-14T01:39:14.041Z,99.90
2023-04-14T01:41:46.040Z,99.90
2023-04-14T01:44:14.369Z,99.90
2023-04-14T01:46:42.882Z,99.90
2023-04-14T01:49:10.828Z,99.90
2023-04-14T01:51:40.481Z,99.90
2023-04-14T01:54:09.744Z,99.90
2023-04-14T01:56:39.676Z,99.90
2023-04-14T01:59:06.410Z,99.90
2023-04-14T02:01:34.436Z,99.90
2023-04-14T02:04:03.451Z,99.90
2023-04-14T02:06:32.044Z,99.90
2023-04-14T02:09:03.632Z,99.90
2023-04-14T02:11:32.002Z,99.90
2023-04-14T02:14:00.454Z,99.90
2023-04-14T02:16:28.750Z,99.90
2023-04-14T02:18:55.471Z,99.90
2023-04-14T02:21:26.420Z,99.90
2023-04-14T02:23:53.191Z,99.90
2023-04-14T02:26:23.292Z,99.90
2023-04-14T02:28:53.761Z,99.90
2023-04-14T02:31:25.241Z,99.90
2023-04-14T02:33:58.047Z,99.90
2023-04-14T02:36:34.004Z,99.90
2023-04-14T02:39:14.199Z,99.90
2023-04-14T02:41:43.426Z,99.90
2023-04-14T02:44:24.382Z,99.90
2023-04-14T02:47:11.451Z,99.90
2023-04-14T02:49:43.091Z,99.90
2023-04-14T02:52:12.495Z,99.90
2023-04-14T02:54:42.219Z,99.90
2023-04-14T02:57:09.474Z,99.90
2023-04-14T02:59:37.544Z,99.90
2023-04-14T03:02:06.071Z,99.90
2023-04-14T03:04:35.050Z,99.90
2023-04-14T03:07:02.932Z,99.90
2023-04-14T03:09:31.836Z,99.90
2023-04-14T03:12:00.364Z,99.90
2023-04-14T03:14:27.898Z,99.90
2023-04-14T03:16:55.554Z,99.90
2023-04-14T03:19:23.802Z,99.90
2023-04-14T03:21:51.631Z,99.90
2023-04-14T03:24:27.219Z,99.90
2023-04-14T03:26:58.252Z,99.90
2023-04-14T03:29:28.576Z,99.90
2023-04-14T03:31:57.752Z,99.90
2023-04-14T03:34:31.607Z,99.90
2023-04-14T03:36:59.375Z,99.90
2023-04-14T03:39:28.025Z,99.90
2023-04-14T03:41:57.274Z,99.90
2023-04-14T03:44:26.166Z,99.90
2023-04-14T03:46:54.405Z,99.90
2023-04-14T03:49:23.974Z,99.90
2023-04-14T03:51:53.297Z,99.90
2023-04-14T03:54:23.805Z,99.90
2023-04-14T03:56:51.926Z,99.90
2023-04-14T03:59:20.719Z,99.90
2023-04-14T04:01:48.141Z,99.90
2023-04-14T04:04:15.576Z,99.90
2023-04-14T04:06:43.131Z,99.90
2023-04-14T04:09:12.457Z,99.90
2023-04-14T04:11:41.842Z,99.90
2023-04-14T04:14:09.542Z,99.90
2023-04-14T04:16:38.323Z,99.90
2023-04-14T04:19:06.346Z,99.90
2023-04-14T04:21:35.195Z,99.90
2023-04-14T04:24:04.443Z,99.90
2023-04-14T04:26:31.226Z,99.90
2023-04-14T04:28:58.877Z,99.90
2023-04-14T04:31:27.580Z,99.90
2023-04-14T04:33:55.069Z,99.90
2023-04-14T04:36:22.100Z,99.90
2023-04-14T04:38:49.885Z,99.90
2023-04-14T04:41:24.631Z,99.90
2023-04-14T04:43:51.152Z,99.90
2023-04-14T04:46:40.421Z,99.90
2023-04-14T04:49:06.955Z,99.90
2023-04-14T04:51:33.534Z,99.90
2023-04-14T04:54:00.188Z,99.90
2023-04-14T04:56:27.143Z,99.90
2023-04-14T04:58:53.849Z,99.90
2023-04-14T05:01:20.492Z,99.90
2023-04-14T05:03:47.398Z,99.90
2023-04-14T05:06:14.020Z,99.90
2023-04-14T05:08:40.664Z,99.90
2023-04-14T05:11:07.273Z,99.90
2023-04-14T05:13:33.935Z,99.90
2023-04-14T05:16:07.731Z,99.90
2023-04-14T05:18:36.090Z,99.90
2023-04-14T05:21:06.957Z,99.90
2023-04-14T05:23:34.420Z,99.90
2023-04-14T05:26:16.317Z,99.90
2023-04-14T05:28:47.594Z,99.90
2023-04-14T05:31:14.211Z,99.90
2023-04-14T05:33:40.954Z,99.90
2023-04-14T05:36:07.674Z,99.90
2023-04-14T05:38:39.826Z,99.90
2023-04-14T05:41:07.361Z,99.90
2023-04-14T05:43:33.932Z,99.90
2023-04-14T05:46:01.402Z,99.90
2023-04-14T05:48:30.327Z,99.90
2023-04-14T05:50:57.785Z,99.90
2023-04-14T05:53:24.338Z,99.90
2023-04-14T05:55:53.796Z,99.90
2023-04-14T05:58:20.344Z,99.90
2023-04-14T06:00:46.989Z,99.90
2023-04-14T06:03:13.857Z,99.90
2023-04-14T06:05:40.566Z,99.90
2023-04-14T06:08:07.122Z,99.90
2023-04-14T06:10:35.402Z,99.90
2023-04-14T06:13:01.878Z,99.90
2023-04-14T06:15:29.551Z,99.90
2023-04-14T06:17:56.209Z,99.90
2023-04-14T06:20:22.886Z,99.90
2023-04-14T06:22:49.435Z,99.90
2023-04-14T06:25:16.346Z,99.90
2023-04-14T06:27:43.561Z,99.90
2023-04-14T06:30:10.531Z,99.90
2023-04-14T06:32:37.214Z,99.90
2023-04-14T06:35:04.697Z,99.90
2023-04-14T06:37:31.983Z,99.90
2023-04-14T06:39:58.510Z,99.90
2023-04-14T06:42:25.506Z,99.90
2023-04-14T06:44:52.064Z,99.90
2023-04-14T06:47:20.840Z,99.90
2023-04-14T06:49:47.909Z,99.90
2023-04-14T06:52:14.475Z,99.90
2023-04-14T06:54:42.068Z,99.90
2023-04-14T06:57:08.902Z,99.90
2023-04-14T06:59:35.498Z,99.90
2023-04-14T07:02:02.400Z,99.90
2023-04-14T07:04:29.199Z,99.90
2023-04-14T07:07:00.694Z,99.90
2023-04-14T07:09:28.718Z,99.90
2023-04-14T07:11:57.433Z,99.90
2023-04-14T07:14:24.581Z,99.90
2023-04-14T07:16:52.211Z,99.90
2023-04-14T07:19:19.401Z,99.90
2023-04-14T07:21:46.856Z,99.90
2023-04-14T07:24:15.381Z,99.90
2023-04-14T07:26:44.016Z,99.90
2023-04-14T07:29:10.582Z,99.90
2023-04-14T07:31:37.933Z,99.90
2023-04-14T07:34:04.981Z,99.90
2023-04-14T07:36:32.397Z,99.90
2023-04-14T07:38:59.008Z,99.90
2023-04-14T07:41:26.603Z,99.90
2023-04-14T07:43:55.480Z,99.90
2023-04-14T07:46:22.093Z,99.90
2023-04-14T07:48:48.662Z,99.90
2023-04-14T07:51:15.406Z,99.90
2023-04-14T07:53:43.512Z,99.90
2023-04-14T07:56:10.663Z,99.90
2023-04-14T07:58:37.610Z,99.90
2023-04-14T08:01:04.992Z,99.90
2023-04-14T08:03:31.681Z,99.90
2023-04-14T08:05:58.410Z,99.90
2023-04-14T08:08:25.886Z,99.90
2023-04-14T08:10:52.410Z,99.90
2023-04-14T08:13:19.188Z,99.90
2023-04-14T08:15:45.878Z,99.90
2023-04-14T08:18:12.612Z,99.90
2023-04-14T08:20:39.384Z,98.70
2023-04-14T08:23:06.112Z,97.50
2023-04-14T08:25:32.740Z,97.40
2023-04-14T08:27:59.224Z,97.00
2023-04-14T08:30:26.293Z,97.00
2023-04-14T08:32:52.865Z,97.50
2023-04-14T08:35:38.738Z,96.40
2023-04-14T08:38:08.117Z,96.80
2023-04-14T08:40:43.228Z,96.70
2023-04-14T08:43:12.426Z,96.20
2023-04-14T08:45:41.696Z,96.00
2023-04-14T08:48:09.625Z,96.60
2023-04-14T08:50:49.219Z,98.10
2023-04-14T08:53:18.278Z,95.10
2023-04-14T08:55:45.427Z,95.20
2023-04-14T08:58:12.107Z,94.80
2023-04-14T09:00:40.006Z,96.30
2023-04-14T09:03:07.845Z,96.50
2023-04-14T09:05:34.854Z,97.00
2023-04-14T09:08:02.129Z,95.80
2023-04-14T09:10:30.206Z,95.30
2023-04-14T09:12:57.360Z,95.40
2023-04-14T09:15:27.129Z,95.10
2023-04-14T09:17:55.027Z,96.50
2023-04-14T09:20:37.999Z,95.20
2023-04-14T09:23:09.135Z,94.30
2023-04-14T09:25:36.655Z,93.00
2023-04-14T09:28:03.280Z,94.30
2023-04-14T09:30:31.723Z,93.70
2023-04-14T09:32:58.664Z,92.70
2023-04-14T09:35:48.534Z,93.10
2023-04-14T09:38:16.857Z,91.60
2023-04-14T09:40:44.793Z,93.40
2023-04-14T09:43:25.325Z,92.30
2023-04-14T09:45:52.444Z,91.70
2023-04-14T09:48:20.071Z,92.20
2023-04-14T09:51:07.206Z,93.60
2023-04-14T09:53:35.517Z,91.30
2023-04-14T09:56:05.851Z,89.80
2023-04-14T09:58:36.701Z,90.10
2023-04-14T10:01:14.396Z,89.30
2023-04-14T10:03:46.252Z,89.00
2023-04-14T10:06:20.998Z,90.30
2023-04-14T10:08:48.995Z,91.10
2023-04-14T10:11:19.896Z,87.10
2023-04-14T10:13:48.960Z,86.20
2023-04-14T10:16:15.793Z,87.50
2023-04-14T10:18:43.458Z,86.50
2023-04-14T10:21:11.275Z,83.30
2023-04-14T10:23:39.526Z,83.50
2023-04-14T10:26:07.858Z,81.90
2023-04-14T10:28:35.935Z,81.40
2023-04-14T10:31:05.949Z,77.50
2023-04-14T10:33:32.568Z,76.90
2023-04-14T10:36:03.523Z,80.30
2023-04-14T10:38:40.636Z,79.50
2023-04-14T10:41:07.646Z,80.90
2023-04-14T10:43:38.045Z,81.10
2023-04-14T10:46:06.139Z,83.50
2023-04-14T10:48:34.822Z,81.80
2023-04-14T10:51:06.788Z,83.40
2023-04-14T10:53:37.598Z,80.10
2023-04-14T10:56:05.947Z,76.50
2023-04-14T10:58:35.971Z,74.10
2023-04-14T11:01:24.355Z,74.10
2023-04-14T11:03:51.415Z,73.20
2023-04-14T11:06:57.005Z,73.50
2023-04-14T11:09:30.280Z,78.10
2023-04-14T11:11:59.585Z,77.10
2023-04-14T11:14:35.903Z,76.20
2023-04-14T11:17:04.885Z,76.40
2023-04-14T11:19:32.199Z,77.00
2023-04-14T11:21:58.856Z,76.90
2023-04-14T11:24:26.482Z,77.70
2023-04-14T11:26:56.431Z,76.70
2023-04-14T11:29:23.151Z,76.70
2023-04-14T11:32:06.400Z,77.20
2023-04-14T11:34:36.231Z,74.00
2023-04-14T11:37:03.635Z,73.30
2023-04-14T11:39:30.346Z,73.50
2023-04-14T11:42:00.345Z,71.90
2023-04-14T11:44:27.410Z,73.10
2023-04-14T11:46:54.128Z,72.50
2023-04-14T11:49:33.488Z,74.10
2023-04-14T11:52:05.571Z,73.50
2023-04-14T11:54:38.985Z,74.50
2023-04-14T11:57:17.412Z,74.30
2023-04-14T11:59:45.472Z,74.60
2023-04-14T12:02:22.028Z,75.20
2023-04-14T12:04:50.654Z,74.70
2023-04-14T12:07:19.883Z,73.70
2023-04-14T12:09:48.921Z,76.80
2023-04-14T12:12:17.578Z,78.10
2023-04-14T12:14:46.687Z,75.30
2023-04-14T12:17:15.239Z,76.90
2023-04-14T12:19:42.674Z,75.30
2023-04-14T12:22:09.518Z,76.00
2023-04-14T12:24:42.316Z,79.10
2023-04-14T12:27:09.915Z,77.10
2023-04-14T12:29:36.683Z,75.70
2023-04-14T12:32:10.722Z,82.10
2023-04-14T12:34:37.482Z,81.30
2023-04-14T12:37:11.284Z,82.30
2023-04-14T12:39:59.641Z,79.70
2023-04-14T12:42:27.591Z,82.20
2023-04-14T12:44:59.249Z,80.20
2023-04-14T12:47:33.879Z,82.40
2023-04-14T12:50:02.365Z,81.40
2023-04-14T12:52:33.403Z,81.00
2023-04-14T12:55:00.018Z,83.30
2023-04-14T12:57:28.291Z,81.00
2023-04-14T12:59:54.843Z,81.40
2023-04-14T13:02:22.186Z,81.00
2023-04-14T13:04:49.437Z,77.20
2023-04-14T13:07:16.018Z,75.60
2023-04-14T13:09:43.486Z,77.80
2023-04-14T13:12:10.212Z,73.20
2023-04-14T13:14:36.922Z,72.30
2023-04-14T13:17:06.074Z,73.60
2023-04-14T13:19:32.679Z,73.80
2023-04-14T13:21:59.201Z,75.20
2023-04-14T13:24:25.712Z,74.30
2023-04-14T13:26:52.208Z,76.10
2023-04-14T13:29:18.934Z,78.40
2023-04-14T13:31:45.778Z,77.40
2023-04-14T13:34:12.312Z,78.80
2023-04-14T13:36:38.979Z,77.00
2023-04-14T13:39:06.099Z,75.90
2023-04-14T13:41:32.668Z,71.10
2023-04-14T13:43:59.198Z,72.10
2023-04-14T13:46:25.798Z,75.30
2023-04-14T13:48:52.320Z,76.50
2023-04-14T13:51:18.937Z,77.00
2023-04-14T13:53:46.172Z,72.20
2023-04-14T13:56:12.681Z,71.30
2023-04-14T13:58:39.243Z,70.40
2023-04-14T14:01:11.133Z,69.10
2023-04-14T14:03:41.519Z,71.70
2023-04-14T14:06:08.182Z,71.40
2023-04-14T14:08:38.754Z,75.00
2023-04-14T14:11:06.050Z,76.00
2023-04-14T14:13:34.028Z,76.20
2023-04-14T14:16:00.594Z,78.10
2023-04-14T14:18:27.359Z,79.50
2023-04-14T14:20:53.904Z,80.30
2023-04-14T14:23:20.470Z,79.80
2023-04-14T14:25:46.999Z,81.50
2023-04-14T14:28:13.782Z,81.30
2023-04-14T14:30:40.503Z,81.50
2023-04-14T14:33:07.288Z,81.30
2023-04-14T14:35:33.838Z,79.80
2023-04-14T14:38:01.013Z,79.60
2023-04-14T14:40:28.462Z,80.50
2023-04-14T14:42:55.260Z,82.00
2023-04-14T14:45:30.677Z,81.00
2023-04-14T14:47:58.131Z,81.50
2023-04-14T14:50:24.662Z,79.20
2023-04-14T14:52:51.423Z,79.00
2023-04-14T14:55:17.963Z,79.80
2023-04-14T14:57:44.478Z,80.20
2023-04-14T15:00:11.679Z,81.80
2023-04-14T15:02:38.616Z,82.40
2023-04-14T15:05:07.125Z,82.20
2023-04-14T15:07:33.815Z,84.40
2023-04-14T15:10:01.430Z,82.80
2023-04-14T15:12:28.185Z,84.60
2023-04-14T15:14:54.727Z,82.60
2023-04-14T15:17:21.295Z,80.90
2023-04-14T15:19:47.956Z,77.70
2023-04-14T15:22:14.907Z,76.20
2023-04-14T15:24:41.486Z,76.10
2023-04-14T15:27:08.063Z,77.00
2023-04-14T15:29:34.583Z,75.80
2023-04-14T15:32:01.264Z,77.40
2023-04-14T15:34:28.058Z,78.80
2023-04-14T15:36:54.879Z,77.00
2023-04-14T15:39:21.444Z,78.60
2023-04-14T15:41:50.198Z,79.60
2023-04-14T15:44:16.724Z,77.10
2023-04-14T15:46:43.233Z,75.20
2023-04-14T15:49:09.778Z,77.60
2023-04-14T15:51:36.622Z,76.30
2023-04-14T15:54:04.225Z,78.10
2023-04-14T15:56:31.086Z,80.20
2023-04-14T15:58:57.722Z,78.00
2023-04-14T16:01:24.302Z,75.40
2023-04-14T16:04:22.232Z,76.30
2023-04-14T16:06:37.862Z,78.20
2023-04-14T16:09:04.958Z,79.00
2023-04-14T16:11:31.585Z,80.10
2023-04-14T16:13:58.095Z,82.10
2023-04-14T16:16:24.983Z,84.20
2023-04-14T16:18:52.640Z,82.10
2023-04-14T16:21:19.139Z,80.10
2023-04-14T16:23:45.790Z,81.20
2023-04-14T16:26:12.778Z,81.20
2023-04-14T16:28:39.304Z,81.30
2023-04-14T16:31:06.307Z,82.50
2023-04-14T16:33:32.936Z,84.10
2023-04-14T16:36:07.174Z,83.00
2023-04-14T16:38:33.785Z,80.80
2023-04-14T16:41:01.939Z,77.90
2023-04-14T16:43:28.555Z,77.70
2023-04-14T16:46:06.877Z,76.10
2023-04-14T16:48:34.850Z,77.00
2023-04-14T16:51:09.029Z,74.40
2023-04-14T16:53:36.391Z,75.40
2023-04-14T16:56:07.357Z,75.40
2023-04-14T16:58:34.733Z,76.50
2023-04-14T17:01:01.433Z,77.20
2023-04-14T17:03:28.316Z,77.20
2023-04-14T17:05:55.188Z,77.30
2023-04-14T17:08:21.918Z,78.10
2023-04-14T17:10:48.499Z,77.40
2023-04-14T17:13:15.179Z,77.60
2023-04-14T17:15:43.820Z,79.40
2023-04-14T17:18:11.433Z,79.20
2023-04-14T17:20:41.059Z,78.40
2023-04-14T17:23:09.235Z,78.20
2023-04-14T17:25:37.141Z,76.10
2023-04-14T17:28:06.986Z,76.20
2023-04-14T17:30:34.735Z,77.10
2023-04-14T17:33:07.479Z,78.50
2023-04-14T17:35:35.305Z,79.10
2023-04-14T17:38:02.149Z,79.80
2023-04-14T17:40:28.871Z,80.10
2023-04-14T17:42:56.234Z,79.90
2023-04-14T17:45:23.157Z,81.00
2023-04-14T17:47:56.251Z,81.80
2023-04-14T17:50:23.919Z,82.60
2023-04-14T17:52:51.447Z,82.60
2023-04-14T17:55:18.355Z,83.00
2023-04-14T17:57:46.562Z,83.50
2023-04-14T18:00:14.517Z,84.40
2023-04-14T18:02:41.352Z,85.30
2023-04-14T18:05:09.648Z,85.60
2023-04-14T18:07:38.955Z,86.20
2023-04-14T18:10:06.400Z,87.40
2023-04-14T18:12:33.219Z,88.30
2023-04-14T18:14:59.707Z,89.40
2023-04-14T18:17:26.344Z,89.90
2023-04-14T18:19:56.239Z,90.10
2023-04-14T18:22:22.792Z,90.60
2023-04-14T18:24:50.676Z,91.10
2023-04-14T18:29:47.374Z,92.20
2023-04-14T18:32:14.385Z,92.60
2023-04-14T18:34:40.900Z,93.00
2023-04-14T18:37:07.818Z,93.20
2023-04-14T18:39:36.174Z,93.80
2023-04-14T18:42:03.468Z,94.90
2023-04-14T18:44:30.004Z,96.20
2023-04-14T18:46:56.766Z,97.00
2023-04-14T18:49:23.899Z,97.70
2023-04-14T18:51:52.351Z,98.80
2023-04-14T18:54:19.023Z,99.90
2023-04-14T18:56:45.814Z,99.90
2023-04-14T18:59:12.480Z,99.90
2023-04-14T19:01:39.390Z,99.90
2023-04-14T19:04:09.082Z,99.90
2023-04-14T19:06:35.773Z,99.90
2023-04-14T19:09:04.534Z,99.90
2023-04-14T19:11:35.670Z,99.90
2023-04-14T19:14:03.864Z,99.90
2023-04-14T19:16:30.849Z,99.90
2023-04-14T19:18:58.421Z,99.90
2023-04-14T19:21:25.915Z,99.90
2023-04-14T19:23:54.325Z,99.90
2023-04-14T19:26:21.220Z,99.90
2023-04-14T19:28:47.847Z,99.90
2023-04-14T19:31:15.523Z,99.90
2023-04-14T19:33:42.091Z,99.90
2023-04-14T19:36:15.433Z,99.90
2023-04-14T19:38:42.200Z,99.90
2023-04-14T19:41:09.396Z,99.90
2023-04-14T19:43:36.390Z,99.90
2023-04-14T19:46:04.935Z,99.90
2023-04-14T19:48:35.060Z,99.90
2023-04-14T19:51:02.247Z,99.90
2023-04-14T19:53:29.223Z,99.90
2023-04-14T19:55:57.775Z,99.90
2023-04-14T19:58:26.836Z,99.90
2023-04-14T20:00:56.986Z,99.90
2023-04-14T20:03:24.517Z,99.90
2023-04-14T20:05:54.592Z,99.90
2023-04-14T20:08:26.181Z,99.90
2023-04-14T20:10:54.038Z,99.90
2023-04-14T20:13:22.709Z,99.90
2023-04-14T20:15:50.541Z,99.90
2023-04-14T20:18:17.822Z,99.90
2023-04-14T20:20:45.176Z,99.90
2023-04-14T20:23:11.814Z,99.90
2023-04-14T20:25:39.368Z,99.90
2023-04-14T20:28:07.397Z,99.90
2023-04-14T20:30:33.981Z,99.90
2023-04-14T20:33:03.987Z,99.90
2023-04-14T20:35:31.271Z,99.90
2023-04-14T20:37:58.068Z,99.90
2023-04-14T20:40:24.895Z,99.90
2023-04-14T20:42:51.424Z,99.90
2023-04-14T20:45:18.098Z,99.90
2023-04-14T20:47:44.948Z,99.90
2023-04-14T20:50:12.216Z,99.90
2023-04-14T20:52:39.711Z,99.90
2023-04-14T20:55:06.810Z,99.90
2023-04-14T20:57:33.332Z,99.90
2023-04-14T21:00:00.044Z,99.90
2023-04-14T21:02:27.376Z,99.90
2023-04-14T21:04:53.975Z,99.90
2023-04-14T21:07:20.540Z,99.90
2023-04-14T21:09:47.130Z,99.90
2023-04-14T21:12:15.124Z,99.90
2023-04-14T21:15:30.284Z,99.90
2023-04-14T21:17:30.181Z,99.90
2023-04-14T21:19:57.330Z,99.90
2023-04-14T21:22:23.926Z,99.90
2023-04-14T21:24:50.646Z,99.90
2023-04-14T21:27:17.343Z,99.90
2023-04-14T21:29:44.874Z,99.90
2023-04-14T21:32:11.560Z,99.90
2023-04-14T21:34:38.172Z,99.90
2023-04-14T21:37:04.829Z,99.90
2023-04-14T21:39:33.055Z,99.90
2023-04-14T21:42:01.332Z,99.90
2023-04-14T21:44:28.099Z,99.90
2023-04-14T21:46:55.514Z,99.90
2023-04-14T21:49:22.380Z,99.90
2023-04-14T21:51:52.417Z,99.90
2023-04-14T21:54:19.531Z,99.90
2023-04-14T21:56:46.163Z,99.90
2023-04-14T21:59:12.869Z,99.90
2023-04-14T22:01:39.880Z,99.90
2023-04-14T22:04:06.694Z,99.90
2023-04-14T22:06:35.198Z,99.90
2023-04-14T22:09:02.095Z,99.90
2023-04-14T22:11:30.691Z,99.90
2023-04-14T22:13:58.064Z,99.90
2023-04-14T22:16:25.328Z,99.90
2023-04-14T22:18:52.058Z,99.90
2023-04-14T22:21:18.667Z,99.90
2023-04-14T22:23:45.217Z,99.90
2023-04-14T22:26:13.201Z,99.90
2023-04-14T22:28:40.864Z,99.90
2023-04-14T22:31:07.714Z,99.90
2023-04-14T22:33:35.168Z,99.90
2023-04-14T22:36:03.681Z,99.90
2023-04-14T22:38:30.912Z,99.90
2023-04-14T22:40:57.436Z,99.90
2023-04-14T22:43:24.126Z,99.90
2023-04-14T22:45:50.875Z,99.90
2023-04-14T22:48:17.680Z,99.90
2023-04-14T22:50:44.237Z,99.90
2023-04-14T22:53:10.887Z,99.90
2023-04-14T22:55:37.722Z,99.90
2023-04-14T22:58:04.310Z,99.90
2023-04-14T23:00:31.341Z,99.90
2023-04-14T23:02:59.635Z,99.90
2023-04-14T23:05:26.346Z,99.90
2023-04-14T23:07:52.892Z,99.90
2023-04-14T23:10:19.452Z,99.90
2023-04-14T23:12:46.211Z,99.90
2023-04-14T23:15:12.883Z,99.90
2023-04-14T23:17:39.394Z,99.90
2023-04-14T23:20:06.927Z,99.90
2023-04-14T23:22:33.789Z,99.90
2023-04-14T23:25:00.619Z,99.90
2023-04-14T23:27:27.926Z,99.90
2023-04-14T23:29:54.472Z,99.90
2023-04-14T23:32:21.103Z,99.90
2023-04-14T23:34:48.228Z,99.90
2023-04-14T23:37:14.807Z,99.90
2023-04-14T23:39:41.345Z,99.90
2023-04-14T23:42:08.393Z,99.90
2023-04-14T23:44:34.888Z,99.90
2023-04-14T23:47:02.205Z,99.90
2023-04-14T23:49:34.012Z,99.90
2023-04-14T23:52:03.114Z,99.90
2023-04-14T23:54:30.830Z,99.90
2023-04-14T23:56:58.049Z,99.90
2023-04-14T23:59:24.685Z,99.90
